createdAt,value
2022-12-18T00:22:31.358Z,102365.75
2022-12-18T00:52:34.166Z,102408.89
2022-12-18T01:22:37.782Z,102439.58
2022-12-18T01:52:40.818Z,102465.36
2022-12-18T02:22:44.435Z,102477.16
2022-12-18T02:52:47.242Z,102493.84
2022-12-18T03:22:51.110Z,102512.25
2022-12-18T03:52:53.911Z,102521.18
2022-12-18T04:22:58.044Z,102534.83
2022-12-18T04:53:00.811Z,102569.31
2022-12-18T05:23:04.084Z,102591.56
2022-12-18T05:53:07.309Z,102638.23
2022-12-18T06:23:10.947Z,102670.11
2022-12-18T06:53:13.683Z,102679.55
2022-12-18T07:23:17.670Z,102719.16
2022-12-18T07:53:20.429Z,102778.80
2022-12-18T08:23:28.619Z,102782.31
2022-12-18T08:53:35.641Z,102759.63
2022-12-18T09:23:39.873Z,102759.19
2022-12-18T09:53:42.680Z,102776.22
2022-12-18T10:23:48.390Z,102772.55
2022-12-18T10:53:51.662Z,102782.97
2022-12-18T11:23:54.795Z,102751.77
2022-12-18T11:53:57.726Z,102759.59
2022-12-18T12:24:01.758Z,102781.45
2022-12-18T12:54:05.095Z,102774.23
2022-12-18T13:24:09.872Z,102773.95
2022-12-18T13:54:12.673Z,102778.77
2022-12-18T14:24:17.882Z,102818.22
2022-12-18T14:54:22.479Z,102834.22
2022-12-18T15:24:26.987Z,102786.02
2022-12-18T15:54:29.791Z,102746.84
2022-12-18T16:24:33.679Z,102771.58
2022-12-18T16:54:36.544Z,102780.45
2022-12-18T17:24:40.205Z,102797.30
2022-12-18T17:54:43.145Z,102773.59
2022-12-18T18:24:47.274Z,102731.02
2022-12-18T18:55:11.462Z,102764.57
2022-12-18T19:25:13.710Z,102740.42
2022-12-18T19:55:16.973Z,102751.17
2022-12-18T20:25:20.738Z,102747.59
2022-12-18T20:55:23.638Z,102758.88
2022-12-18T21:25:27.288Z,102717.94
2022-12-18T21:55:30.212Z,102671.71
2022-12-18T22:25:33.821Z,102627.63
2022-12-18T22:55:38.013Z,102581.31
2022-12-18T23:25:41.592Z,102551.38
2022-12-18T23:55:44.408Z,102498.27
